sensor_id;sensor_type;location;lat;lon;timestamp;P1;durP1;ratioP1;P2;durP2;ratioP2
13951;SDS011;39535;52.192;9.886;2024-02-21T00:01:28;12.87;;;8.53;;
13951;SDS011;39535;52.192;9.886;2024-02-21T00:03:54;11.17;;;8.90;;
13951;SDS011;39535;52.192;9.886;2024-02-21T00:06:21;18.23;;;10.07;;
13951;SDS011;39535;52.192;9.886;2024-02-21T00:08:49;12.10;;;8.97;;
13951;SDS011;39535;52.192;9.886;2024-02-21T00:11:15;11.43;;;9.23;;
13951;SDS011;39535;52.192;9.886;2024-02-21T00:13:42;11.60;;;9.43;;
13951;SDS011;39535;52.192;9.886;2024-02-21T00:16:08;12.73;;;9.57;;
13951;SDS011;39535;52.192;9.886;2024-02-21T00:18:35;15.90;;;10.83;;
13951;SDS011;39535;52.192;9.886;2024-02-21T00:21:02;18.20;;;10.93;;
13951;SDS011;39535;52.192;9.886;2024-02-21T00:23:28;13.97;;;11.17;;
13951;SDS011;39535;52.192;9.886;2024-02-21T00:25:56;15.17;;;10.97;;
13951;SDS011;39535;52.192;9.886;2024-02-21T00:28:22;14.43;;;11.07;;
13951;SDS011;39535;52.192;9.886;2024-02-21T00:30:49;16.93;;;12.23;;
13951;SDS011;39535;52.192;9.886;2024-02-21T00:33:16;17.60;;;12.50;;
13951;SDS011;39535;52.192;9.886;2024-02-21T00:35:42;15.60;;;11.77;;
13951;SDS011;39535;52.192;9.886;2024-02-21T00:38:09;18.17;;;11.00;;
13951;SDS011;39535;52.192;9.886;2024-02-21T00:40:35;21.47;;;12.00;;
13951;SDS011;39535;52.192;9.886;2024-02-21T00:43:03;20.47;;;11.27;;
13951;SDS011;39535;52.192;9.886;2024-02-21T00:45:29;15.07;;;12.00;;
13951;SDS011;39535;52.192;9.886;2024-02-21T00:47:55;15.63;;;11.60;;
13951;SDS011;39535;52.192;9.886;2024-02-21T00:50:22;13.83;;;11.70;;
13951;SDS011;39535;52.192;9.886;2024-02-21T00:52:48;16.93;;;13.37;;
13951;SDS011;39535;52.192;9.886;2024-02-21T00:55:14;16.13;;;11.00;;
13951;SDS011;39535;52.192;9.886;2024-02-21T00:57:41;16.90;;;12.07;;
13951;SDS011;39535;52.192;9.886;2024-02-21T01:00:09;15.20;;;11.50;;
13951;SDS011;39535;52.192;9.886;2024-02-21T01:02:36;14.70;;;11.50;;
13951;SDS011;39535;52.192;9.886;2024-02-21T01:05:03;13.47;;;11.80;;
13951;SDS011;39535;52.192;9.886;2024-02-21T01:07:29;16.07;;;11.73;;
13951;SDS011;39535;52.192;9.886;2024-02-21T01:09:56;18.63;;;12.50;;
13951;SDS011;39535;52.192;9.886;2024-02-21T01:12:22;18.50;;;12.53;;
13951;SDS011;39535;52.192;9.886;2024-02-21T01:14:48;18.93;;;11.17;;
13951;SDS011;39535;52.192;9.886;2024-02-21T01:17:16;18.93;;;12.57;;
13951;SDS011;39535;52.192;9.886;2024-02-21T01:19:42;19.23;;;11.83;;
13951;SDS011;39535;52.192;9.886;2024-02-21T01:22:09;21.37;;;11.90;;
13951;SDS011;39535;52.192;9.886;2024-02-21T01:24:35;23.47;;;12.50;;
13951;SDS011;39535;52.192;9.886;2024-02-21T01:27:02;21.90;;;11.50;;
13951;SDS011;39535;52.192;9.886;2024-02-21T01:29:28;19.40;;;11.93;;
13951;SDS011;39535;52.192;9.886;2024-02-21T01:31:54;19.43;;;12.17;;
13951;SDS011;39535;52.192;9.886;2024-02-21T01:34:22;15.63;;;10.80;;
13951;SDS011;39535;52.192;9.886;2024-02-21T01:36:48;14.97;;;11.07;;
13951;SDS011;39535;52.192;9.886;2024-02-21T01:39:15;16.90;;;11.67;;
13951;SDS011;39535;52.192;9.886;2024-02-21T01:41:41;17.30;;;12.23;;
13951;SDS011;39535;52.192;9.886;2024-02-21T01:44:08;15.43;;;11.53;;
13951;SDS011;39535;52.192;9.886;2024-02-21T01:46:34;19.23;;;11.77;;
13951;SDS011;39535;52.192;9.886;2024-02-21T01:49:01;16.57;;;11.53;;
13951;SDS011;39535;52.192;9.886;2024-02-21T01:51:29;13.47;;;11.13;;
13951;SDS011;39535;52.192;9.886;2024-02-21T01:53:56;12.53;;;11.07;;
13951;SDS011;39535;52.192;9.886;2024-02-21T01:56:24;16.33;;;11.80;;
13951;SDS011;39535;52.192;9.886;2024-02-21T01:58:50;14.67;;;11.27;;
13951;SDS011;39535;52.192;9.886;2024-02-21T02:01:17;18.57;;;12.17;;
13951;SDS011;39535;52.192;9.886;2024-02-21T02:03:44;13.30;;;11.10;;
13951;SDS011;39535;52.192;9.886;2024-02-21T02:06:11;19.10;;;11.87;;
13951;SDS011;39535;52.192;9.886;2024-02-21T02:08:39;12.70;;;11.33;;
13951;SDS011;39535;52.192;9.886;2024-02-21T02:11:06;14.23;;;12.00;;
13951;SDS011;39535;52.192;9.886;2024-02-21T02:13:32;15.07;;;13.00;;
13951;SDS011;39535;52.192;9.886;2024-02-21T02:15:59;13.03;;;11.53;;
13951;SDS011;39535;52.192;9.886;2024-02-21T02:18:25;22.20;;;12.90;;
13951;SDS011;39535;52.192;9.886;2024-02-21T02:20:52;16.03;;;12.37;;
13951;SDS011;39535;52.192;9.886;2024-02-21T02:23:23;17.87;;;12.47;;
13951;SDS011;39535;52.192;9.886;2024-02-21T02:25:50;19.60;;;12.33;;
13951;SDS011;39535;52.192;9.886;2024-02-21T02:28:17;22.37;;;12.83;;
13951;SDS011;39535;52.192;9.886;2024-02-21T02:30:44;14.33;;;12.80;;
13951;SDS011;39535;52.192;9.886;2024-02-21T02:33:11;19.40;;;13.30;;
13951;SDS011;39535;52.192;9.886;2024-02-21T02:35:37;16.87;;;12.20;;
13951;SDS011;39535;52.192;9.886;2024-02-21T02:38:04;19.30;;;12.97;;
13951;SDS011;39535;52.192;9.886;2024-02-21T02:40:33;18.20;;;12.80;;
13951;SDS011;39535;52.192;9.886;2024-02-21T02:43:00;16.47;;;13.40;;
13951;SDS011;39535;52.192;9.886;2024-02-21T02:45:27;19.93;;;12.90;;
13951;SDS011;39535;52.192;9.886;2024-02-21T02:47:53;16.90;;;13.07;;
13951;SDS011;39535;52.192;9.886;2024-02-21T02:50:21;18.30;;;13.00;;
13951;SDS011;39535;52.192;9.886;2024-02-21T02:52:48;15.07;;;13.47;;
13951;SDS011;39535;52.192;9.886;2024-02-21T02:55:15;19.90;;;13.57;;
13951;SDS011;39535;52.192;9.886;2024-02-21T02:57:43;15.50;;;13.07;;
13951;SDS011;39535;52.192;9.886;2024-02-21T03:00:10;16.23;;;14.53;;
13951;SDS011;39535;52.192;9.886;2024-02-21T03:02:37;15.63;;;13.50;;
13951;SDS011;39535;52.192;9.886;2024-02-21T03:05:11;17.17;;;13.73;;
13951;SDS011;39535;52.192;9.886;2024-02-21T03:07:39;18.60;;;13.67;;
13951;SDS011;39535;52.192;9.886;2024-02-21T03:10:06;16.17;;;13.40;;
13951;SDS011;39535;52.192;9.886;2024-02-21T03:12:32;14.90;;;12.50;;
13951;SDS011;39535;52.192;9.886;2024-02-21T03:15:00;19.57;;;14.00;;
13951;SDS011;39535;52.192;9.886;2024-02-21T03:17:26;16.70;;;12.87;;
13951;SDS011;39535;52.192;9.886;2024-02-21T03:19:53;14.07;;;12.73;;
13951;SDS011;39535;52.192;9.886;2024-02-21T03:22:20;17.43;;;13.63;;
13951;SDS011;39535;52.192;9.886;2024-02-21T03:24:47;17.00;;;13.47;;
13951;SDS011;39535;52.192;9.886;2024-02-21T03:27:13;16.87;;;13.83;;
13951;SDS011;39535;52.192;9.886;2024-02-21T03:29:40;22.33;;;14.73;;
13951;SDS011;39535;52.192;9.886;2024-02-21T03:32:07;18.63;;;13.77;;
13951;SDS011;39535;52.192;9.886;2024-02-21T03:34:34;16.67;;;13.70;;
13951;SDS011;39535;52.192;9.886;2024-02-21T03:37:00;21.07;;;14.37;;
13951;SDS011;39535;52.192;9.886;2024-02-21T03:39:26;14.17;;;12.73;;
13951;SDS011;39535;52.192;9.886;2024-02-21T03:41:53;15.70;;;13.97;;
13951;SDS011;39535;52.192;9.886;2024-02-21T03:44:19;16.40;;;12.60;;
13951;SDS011;39535;52.192;9.886;2024-02-21T03:46:45;18.53;;;14.80;;
13951;SDS011;39535;52.192;9.886;2024-02-21T03:49:13;17.07;;;13.60;;
13951;SDS011;39535;52.192;9.886;2024-02-21T03:51:39;19.40;;;14.00;;
13951;SDS011;39535;52.192;9.886;2024-02-21T03:54:05;16.10;;;12.37;;
13951;SDS011;39535;52.192;9.886;2024-02-21T03:56:32;14.87;;;13.00;;
13951;SDS011;39535;52.192;9.886;2024-02-21T03:58:58;20.67;;;13.00;;
13951;SDS011;39535;52.192;9.886;2024-02-21T04:01:24;20.07;;;12.40;;
13951;SDS011;39535;52.192;9.886;2024-02-21T04:03:51;15.27;;;13.20;;
13951;SDS011;39535;52.192;9.886;2024-02-21T04:06:18;17.63;;;13.33;;
13951;SDS011;39535;52.192;9.886;2024-02-21T04:08:45;19.93;;;12.53;;
13951;SDS011;39535;52.192;9.886;2024-02-21T04:11:11;15.53;;;13.20;;
13951;SDS011;39535;52.192;9.886;2024-02-21T04:13:37;15.70;;;12.80;;
13951;SDS011;39535;52.192;9.886;2024-02-21T04:16:04;13.20;;;11.90;;
13951;SDS011;39535;52.192;9.886;2024-02-21T04:18:31;15.80;;;12.83;;
13951;SDS011;39535;52.192;9.886;2024-02-21T04:20:57;16.00;;;13.67;;
13951;SDS011;39535;52.192;9.886;2024-02-21T04:23:25;15.07;;;13.57;;
13951;SDS011;39535;52.192;9.886;2024-02-21T04:25:51;13.73;;;12.30;;
13951;SDS011;39535;52.192;9.886;2024-02-21T04:28:17;14.83;;;12.70;;
13951;SDS011;39535;52.192;9.886;2024-02-21T04:30:44;17.57;;;13.33;;
13951;SDS011;39535;52.192;9.886;2024-02-21T04:33:10;16.00;;;13.00;;
13951;SDS011;39535;52.192;9.886;2024-02-21T04:35:36;14.50;;;13.03;;
13951;SDS011;39535;52.192;9.886;2024-02-21T04:38:04;14.43;;;12.03;;
13951;SDS011;39535;52.192;9.886;2024-02-21T04:40:32;16.10;;;13.20;;
13951;SDS011;39535;52.192;9.886;2024-02-21T04:42:58;13.67;;;12.03;;
13951;SDS011;39535;52.192;9.886;2024-02-21T04:45:24;13.90;;;12.57;;
13951;SDS011;39535;52.192;9.886;2024-02-21T04:47:51;14.13;;;12.83;;
13951;SDS011;39535;52.192;9.886;2024-02-21T04:50:17;18.37;;;12.10;;
13951;SDS011;39535;52.192;9.886;2024-02-21T04:52:43;14.47;;;13.03;;
13951;SDS011;39535;52.192;9.886;2024-02-21T04:55:10;13.77;;;12.17;;
13951;SDS011;39535;52.192;9.886;2024-02-21T04:57:37;18.10;;;13.23;;
13951;SDS011;39535;52.192;9.886;2024-02-21T05:00:04;16.50;;;12.20;;
13951;SDS011;39535;52.192;9.886;2024-02-21T05:02:31;14.53;;;12.37;;
13951;SDS011;39535;52.192;9.886;2024-02-21T05:04:58;15.23;;;13.63;;
13951;SDS011;39535;52.192;9.886;2024-02-21T05:07:24;15.27;;;12.07;;
13951;SDS011;39535;52.192;9.886;2024-02-21T05:09:51;12.97;;;11.67;;
13951;SDS011;39535;52.192;9.886;2024-02-21T05:12:18;15.27;;;12.23;;
13951;SDS011;39535;52.192;9.886;2024-02-21T05:14:46;17.57;;;12.37;;
13951;SDS011;39535;52.192;9.886;2024-02-21T05:17:13;20.90;;;12.80;;
13951;SDS011;39535;52.192;9.886;2024-02-21T05:19:39;14.30;;;12.40;;
13951;SDS011;39535;52.192;9.886;2024-02-21T05:22:05;17.43;;;12.70;;
13951;SDS011;39535;52.192;9.886;2024-02-21T05:24:32;13.47;;;12.07;;
13951;SDS011;39535;52.192;9.886;2024-02-21T05:26:58;13.73;;;12.20;;
13951;SDS011;39535;52.192;9.886;2024-02-21T05:29:25;16.27;;;12.13;;
13951;SDS011;39535;52.192;9.886;2024-02-21T05:31:56;13.97;;;12.57;;
13951;SDS011;39535;52.192;9.886;2024-02-21T05:34:23;15.50;;;12.03;;
13951;SDS011;39535;52.192;9.886;2024-02-21T05:36:50;16.83;;;12.63;;
13951;SDS011;39535;52.192;9.886;2024-02-21T05:39:17;16.00;;;12.47;;
13951;SDS011;39535;52.192;9.886;2024-02-21T05:41:43;20.43;;;13.00;;
13951;SDS011;39535;52.192;9.886;2024-02-21T05:44:09;18.07;;;12.47;;
13951;SDS011;39535;52.192;9.886;2024-02-21T05:46:36;15.87;;;12.70;;
13951;SDS011;39535;52.192;9.886;2024-02-21T05:49:04;16.77;;;12.40;;
13951;SDS011;39535;52.192;9.886;2024-02-21T05:51:32;16.80;;;13.30;;
13951;SDS011;39535;52.192;9.886;2024-02-21T05:53:58;16.23;;;12.37;;
13951;SDS011;39535;52.192;9.886;2024-02-21T05:56:25;17.23;;;12.83;;
13951;SDS011;39535;52.192;9.886;2024-02-21T05:58:51;15.47;;;12.93;;
13951;SDS011;39535;52.192;9.886;2024-02-21T06:01:18;16.17;;;11.43;;
13951;SDS011;39535;52.192;9.886;2024-02-21T06:03:44;13.67;;;12.27;;
13951;SDS011;39535;52.192;9.886;2024-02-21T06:06:12;15.87;;;13.17;;
13951;SDS011;39535;52.192;9.886;2024-02-21T06:08:39;15.80;;;12.70;;
13951;SDS011;39535;52.192;9.886;2024-02-21T06:11:05;13.43;;;11.93;;
13951;SDS011;39535;52.192;9.886;2024-02-21T06:13:32;15.65;;;14.05;;
13951;SDS011;39535;52.192;9.886;2024-02-21T06:15:58;13.80;;;12.43;;
13951;SDS011;39535;52.192;9.886;2024-02-21T06:18:24;14.43;;;11.47;;
13951;SDS011;39535;52.192;9.886;2024-02-21T06:20:51;16.43;;;11.53;;
13951;SDS011;39535;52.192;9.886;2024-02-21T06:23:19;14.40;;;12.60;;
13951;SDS011;39535;52.192;9.886;2024-02-21T06:25:45;14.47;;;13.00;;
13951;SDS011;39535;52.192;9.886;2024-02-21T06:28:12;13.87;;;11.90;;
13951;SDS011;39535;52.192;9.886;2024-02-21T06:30:39;17.67;;;12.20;;
13951;SDS011;39535;52.192;9.886;2024-02-21T06:33:06;24.73;;;12.50;;
13951;SDS011;39535;52.192;9.886;2024-02-21T06:35:33;13.50;;;11.00;;
13951;SDS011;39535;52.192;9.886;2024-02-21T06:37:59;12.20;;;11.00;;
13951;SDS011;39535;52.192;9.886;2024-02-21T06:40:27;12.73;;;11.50;;
13951;SDS011;39535;52.192;9.886;2024-02-21T06:42:53;12.70;;;11.47;;
13951;SDS011;39535;52.192;9.886;2024-02-21T06:45:19;12.20;;;11.00;;
13951;SDS011;39535;52.192;9.886;2024-02-21T06:47:46;14.23;;;11.17;;
13951;SDS011;39535;52.192;9.886;2024-02-21T06:50:12;13.57;;;11.63;;
13951;SDS011;39535;52.192;9.886;2024-02-21T06:52:38;13.80;;;10.90;;
13951;SDS011;39535;52.192;9.886;2024-02-21T06:55:05;13.40;;;11.67;;
13951;SDS011;39535;52.192;9.886;2024-02-21T06:57:33;13.20;;;11.80;;
13951;SDS011;39535;52.192;9.886;2024-02-21T06:59:59;13.60;;;11.03;;
13951;SDS011;39535;52.192;9.886;2024-02-21T07:02:25;13.63;;;12.30;;
13951;SDS011;39535;52.192;9.886;2024-02-21T07:04:52;15.77;;;11.80;;
13951;SDS011;39535;52.192;9.886;2024-02-21T07:07:18;15.47;;;10.77;;
13951;SDS011;39535;52.192;9.886;2024-02-21T07:09:44;12.20;;;10.93;;
13951;SDS011;39535;52.192;9.886;2024-02-21T07:12:13;14.53;;;10.50;;
13951;SDS011;39535;52.192;9.886;2024-02-21T07:14:41;12.40;;;11.03;;
13951;SDS011;39535;52.192;9.886;2024-02-21T07:17:07;11.87;;;10.73;;
13951;SDS011;39535;52.192;9.886;2024-02-21T07:19:34;17.03;;;11.07;;
13951;SDS011;39535;52.192;9.886;2024-02-21T07:22:00;12.03;;;10.83;;
13951;SDS011;39535;52.192;9.886;2024-02-21T07:24:26;12.27;;;10.50;;
13951;SDS011;39535;52.192;9.886;2024-02-21T07:26:53;12.80;;;10.00;;
13951;SDS011;39535;52.192;9.886;2024-02-21T07:29:21;12.20;;;9.87;;
13951;SDS011;39535;52.192;9.886;2024-02-21T07:31:48;14.17;;;9.93;;
13951;SDS011;39535;52.192;9.886;2024-02-21T07:34:16;11.70;;;10.53;;
13951;SDS011;39535;52.192;9.886;2024-02-21T07:36:43;13.93;;;10.37;;
13951;SDS011;39535;52.192;9.886;2024-02-21T07:39:10;11.23;;;10.10;;
13951;SDS011;39535;52.192;9.886;2024-02-21T07:41:36;12.43;;;9.40;;
13951;SDS011;39535;52.192;9.886;2024-02-21T07:44:04;22.23;;;11.43;;
13951;SDS011;39535;52.192;9.886;2024-02-21T07:46:30;12.07;;;9.97;;
13951;SDS011;39535;52.192;9.886;2024-02-21T07:48:58;11.83;;;10.50;;
13951;SDS011;39535;52.192;9.886;2024-02-21T07:51:27;11.60;;;10.37;;
13951;SDS011;39535;52.192;9.886;2024-02-21T07:53:53;11.40;;;10.20;;
13951;SDS011;39535;52.192;9.886;2024-02-21T07:56:20;12.03;;;10.63;;
13951;SDS011;39535;52.192;9.886;2024-02-21T07:58:47;14.37;;;11.27;;
13951;SDS011;39535;52.192;9.886;2024-02-21T08:01:17;16.93;;;11.97;;
13951;SDS011;39535;52.192;9.886;2024-02-21T08:03:45;13.33;;;10.77;;
13951;SDS011;39535;52.192;9.886;2024-02-21T08:06:13;12.80;;;10.47;;
13951;SDS011;39535;52.192;9.886;2024-02-21T08:08:39;12.27;;;10.80;;
13951;SDS011;39535;52.192;9.886;2024-02-21T08:11:06;11.17;;;10.07;;
13951;SDS011;39535;52.192;9.886;2024-02-21T08:13:32;17.63;;;11.43;;
13951;SDS011;39535;52.192;9.886;2024-02-21T08:15:59;10.77;;;9.70;;
13951;SDS011;39535;52.192;9.886;2024-02-21T08:18:25;11.97;;;10.70;;
13951;SDS011;39535;52.192;9.886;2024-02-21T08:20:51;18.87;;;11.10;;
13951;SDS011;39535;52.192;9.886;2024-02-21T08:23:19;16.03;;;10.97;;
13951;SDS011;39535;52.192;9.886;2024-02-21T08:25:46;15.17;;;10.80;;
13951;SDS011;39535;52.192;9.886;2024-02-21T08:28:13;10.90;;;9.80;;
13951;SDS011;39535;52.192;9.886;2024-02-21T08:30:40;11.27;;;10.07;;
13951;SDS011;39535;52.192;9.886;2024-02-21T08:33:09;11.43;;;9.13;;
13951;SDS011;39535;52.192;9.886;2024-02-21T08:35:35;13.40;;;10.07;;
13951;SDS011;39535;52.192;9.886;2024-02-21T08:38:02;9.90;;;8.97;;
13951;SDS011;39535;52.192;9.886;2024-02-21T08:40:29;12.03;;;9.03;;
13951;SDS011;39535;52.192;9.886;2024-02-21T08:42:56;9.70;;;8.70;;
13951;SDS011;39535;52.192;9.886;2024-02-21T08:45:22;11.27;;;8.03;;
13951;SDS011;39535;52.192;9.886;2024-02-21T08:47:48;13.17;;;8.40;;
13951;SDS011;39535;52.192;9.886;2024-02-21T08:50:15;13.43;;;7.87;;
13951;SDS011;39535;52.192;9.886;2024-02-21T08:52:41;9.20;;;7.47;;
13951;SDS011;39535;52.192;9.886;2024-02-21T08:55:08;8.83;;;7.17;;
13951;SDS011;39535;52.192;9.886;2024-02-21T08:57:36;9.70;;;7.30;;
13951;SDS011;39535;52.192;9.886;2024-02-21T09:00:03;9.33;;;7.47;;
13951;SDS011;39535;52.192;9.886;2024-02-21T09:02:34;9.40;;;7.33;;
13951;SDS011;39535;52.192;9.886;2024-02-21T09:05:01;8.30;;;6.70;;
13951;SDS011;39535;52.192;9.886;2024-02-21T09:07:27;7.30;;;6.60;;
13951;SDS011;39535;52.192;9.886;2024-02-21T09:09:53;7.37;;;6.67;;
13951;SDS011;39535;52.192;9.886;2024-02-21T09:12:20;7.87;;;6.30;;
13951;SDS011;39535;52.192;9.886;2024-02-21T09:14:47;9.70;;;6.60;;
13951;SDS011;39535;52.192;9.886;2024-02-21T09:17:15;9.33;;;6.50;;
13951;SDS011;39535;52.192;9.886;2024-02-21T09:19:42;9.00;;;6.33;;
13951;SDS011;39535;52.192;9.886;2024-02-21T09:22:08;11.83;;;5.60;;
13951;SDS011;39535;52.192;9.886;2024-02-21T09:24:34;11.37;;;6.20;;
13951;SDS011;39535;52.192;9.886;2024-02-21T09:27:01;7.60;;;6.20;;
13951;SDS011;39535;52.192;9.886;2024-02-21T09:29:27;6.70;;;6.10;;
13951;SDS011;39535;52.192;9.886;2024-02-21T09:31:55;6.70;;;5.87;;
13951;SDS011;39535;52.192;9.886;2024-02-21T09:34:22;8.33;;;5.60;;
13951;SDS011;39535;52.192;9.886;2024-02-21T09:36:48;7.57;;;5.63;;
13951;SDS011;39535;52.192;9.886;2024-02-21T09:39:14;11.60;;;5.80;;
13951;SDS011;39535;52.192;9.886;2024-02-21T09:41:44;5.83;;;4.83;;
13951;SDS011;39535;52.192;9.886;2024-02-21T09:44:13;6.30;;;5.00;;
13951;SDS011;39535;52.192;9.886;2024-02-21T09:46:42;6.93;;;5.53;;
13951;SDS011;39535;52.192;9.886;2024-02-21T09:49:20;9.20;;;5.70;;
13951;SDS011;39535;52.192;9.886;2024-02-21T09:51:53;5.90;;;4.60;;
13951;SDS011;39535;52.192;9.886;2024-02-21T09:54:20;8.27;;;5.07;;
13951;SDS011;39535;52.192;9.886;2024-02-21T09:56:47;5.70;;;4.93;;
13951;SDS011;39535;52.192;9.886;2024-02-21T09:59:13;6.13;;;4.80;;
13951;SDS011;39535;52.192;9.886;2024-02-21T10:01:41;6.37;;;4.90;;
13951;SDS011;39535;52.192;9.886;2024-02-21T10:04:08;5.20;;;4.50;;
13951;SDS011;39535;52.192;9.886;2024-02-21T10:06:36;4.67;;;4.20;;
13951;SDS011;39535;52.192;9.886;2024-02-21T10:09:03;5.17;;;3.50;;
13951;SDS011;39535;52.192;9.886;2024-02-21T10:11:31;6.00;;;4.23;;
13951;SDS011;39535;52.192;9.886;2024-02-21T10:14:03;5.27;;;3.80;;
13951;SDS011;39535;52.192;9.886;2024-02-21T10:16:30;5.20;;;3.77;;
13951;SDS011;39535;52.192;9.886;2024-02-21T10:18:56;5.33;;;3.67;;
13951;SDS011;39535;52.192;9.886;2024-02-21T10:21:23;4.70;;;3.80;;
13951;SDS011;39535;52.192;9.886;2024-02-21T10:23:50;6.13;;;3.57;;
13951;SDS011;39535;52.192;9.886;2024-02-21T10:26:18;4.17;;;3.57;;
13951;SDS011;39535;52.192;9.886;2024-02-21T10:28:45;4.50;;;3.30;;
13951;SDS011;39535;52.192;9.886;2024-02-21T10:31:20;7.57;;;3.27;;
13951;SDS011;39535;52.192;9.886;2024-02-21T10:33:53;6.83;;;3.83;;
13951;SDS011;39535;52.192;9.886;2024-02-21T10:36:20;4.83;;;3.30;;
13951;SDS011;39535;52.192;9.886;2024-02-21T10:38:46;6.80;;;3.63;;
13951;SDS011;39535;52.192;9.886;2024-02-21T10:41:14;3.83;;;3.43;;
13951;SDS011;39535;52.192;9.886;2024-02-21T10:43:41;5.47;;;2.80;;
13951;SDS011;39535;52.192;9.886;2024-02-21T10:46:07;4.67;;;2.53;;
13951;SDS011;39535;52.192;9.886;2024-02-21T10:48:38;5.23;;;3.03;;
13951;SDS011;39535;52.192;9.886;2024-02-21T10:51:11;5.97;;;3.03;;
13951;SDS011;39535;52.192;9.886;2024-02-21T10:53:44;4.13;;;2.87;;
13951;SDS011;39535;52.192;9.886;2024-02-21T10:56:19;4.00;;;2.53;;
13951;SDS011;39535;52.192;9.886;2024-02-21T10:58:49;4.43;;;2.90;;
13951;SDS011;39535;52.192;9.886;2024-02-21T11:01:15;3.70;;;2.50;;
13951;SDS011;39535;52.192;9.886;2024-02-21T11:03:44;5.03;;;3.53;;
13951;SDS011;39535;52.192;9.886;2024-02-21T11:06:13;4.43;;;3.47;;
13951;SDS011;39535;52.192;9.886;2024-02-21T11:08:41;4.07;;;2.43;;
13951;SDS011;39535;52.192;9.886;2024-02-21T11:11:07;4.50;;;2.90;;
13951;SDS011;39535;52.192;9.886;2024-02-21T11:13:36;6.77;;;2.83;;
13951;SDS011;39535;52.192;9.886;2024-02-21T11:16:10;3.93;;;2.30;;
13951;SDS011;39535;52.192;9.886;2024-02-21T11:18:37;4.47;;;2.70;;
13951;SDS011;39535;52.192;9.886;2024-02-21T11:21:03;3.10;;;2.70;;
13951;SDS011;39535;52.192;9.886;2024-02-21T11:23:30;4.80;;;2.70;;
13951;SDS011;39535;52.192;9.886;2024-02-21T11:26:06;3.83;;;2.77;;
13951;SDS011;39535;52.192;9.886;2024-02-21T11:28:33;5.60;;;2.80;;
13951;SDS011;39535;52.192;9.886;2024-02-21T11:31:07;3.80;;;2.83;;
13951;SDS011;39535;52.192;9.886;2024-02-21T11:33:35;3.37;;;2.53;;
13951;SDS011;39535;52.192;9.886;2024-02-21T11:36:01;4.17;;;2.73;;
13951;SDS011;39535;52.192;9.886;2024-02-21T11:38:29;4.30;;;2.33;;
13951;SDS011;39535;52.192;9.886;2024-02-21T11:40:55;4.20;;;2.07;;
13951;SDS011;39535;52.192;9.886;2024-02-21T11:43:23;3.87;;;2.70;;
13951;SDS011;39535;52.192;9.886;2024-02-21T11:45:50;2.63;;;2.10;;
13951;SDS011;39535;52.192;9.886;2024-02-21T11:48:18;3.80;;;3.50;;
13951;SDS011;39535;52.192;9.886;2024-02-21T11:50:52;3.53;;;3.20;;
13951;SDS011;39535;52.192;9.886;2024-02-21T11:53:19;3.73;;;3.43;;
13951;SDS011;39535;52.192;9.886;2024-02-21T11:55:46;3.77;;;3.37;;
13951;SDS011;39535;52.192;9.886;2024-02-21T11:58:12;5.83;;;5.17;;
13951;SDS011;39535;52.192;9.886;2024-02-21T12:00:39;5.27;;;4.63;;
13951;SDS011;39535;52.192;9.886;2024-02-21T12:03:06;6.97;;;6.27;;
13951;SDS011;39535;52.192;9.886;2024-02-21T12:05:34;8.33;;;7.50;;
13951;SDS011;39535;52.192;9.886;2024-02-21T12:08:00;8.00;;;7.20;;
13951;SDS011;39535;52.192;9.886;2024-02-21T12:10:27;8.27;;;7.47;;
13951;SDS011;39535;52.192;9.886;2024-02-21T12:12:53;8.77;;;8.00;;
13951;SDS011;39535;52.192;9.886;2024-02-21T12:15:23;9.17;;;7.60;;
13951;SDS011;39535;52.192;9.886;2024-02-21T12:17:50;8.73;;;7.33;;
13951;SDS011;39535;52.192;9.886;2024-02-21T12:20:20;10.27;;;7.63;;
13951;SDS011;39535;52.192;9.886;2024-02-21T12:22:48;8.90;;;8.07;;
13951;SDS011;39535;52.192;9.886;2024-02-21T12:25:16;9.10;;;8.20;;
13951;SDS011;39535;52.192;9.886;2024-02-21T12:27:44;9.03;;;8.23;;
13951;SDS011;39535;52.192;9.886;2024-02-21T12:30:12;9.77;;;8.83;;
13951;SDS011;39535;52.192;9.886;2024-02-21T12:32:38;8.87;;;7.97;;
13951;SDS011;39535;52.192;9.886;2024-02-21T12:35:06;9.77;;;8.77;;
13951;SDS011;39535;52.192;9.886;2024-02-21T12:37:33;8.83;;;8.03;;
13951;SDS011;39535;52.192;9.886;2024-02-21T12:40:01;11.23;;;8.87;;
13951;SDS011;39535;52.192;9.886;2024-02-21T12:42:27;9.80;;;8.90;;
13951;SDS011;39535;52.192;9.886;2024-02-21T12:44:54;10.00;;;9.00;;
13951;SDS011;39535;52.192;9.886;2024-02-21T12:47:20;9.10;;;8.20;;
13951;SDS011;39535;52.192;9.886;2024-02-21T12:49:48;9.30;;;8.30;;
13951;SDS011;39535;52.192;9.886;2024-02-21T12:52:15;8.83;;;8.03;;
13951;SDS011;39535;52.192;9.886;2024-02-21T12:54:41;8.10;;;7.30;;
13951;SDS011;39535;52.192;9.886;2024-02-21T12:57:09;7.33;;;6.70;;
13951;SDS011;39535;52.192;9.886;2024-02-21T12:59:36;8.57;;;6.43;;
13951;SDS011;39535;52.192;9.886;2024-02-21T13:02:02;7.50;;;6.80;;
13951;SDS011;39535;52.192;9.886;2024-02-21T13:04:28;7.17;;;6.57;;
13951;SDS011;39535;52.192;9.886;2024-02-21T13:06:55;7.90;;;7.10;;
13951;SDS011;39535;52.192;9.886;2024-02-21T13:09:21;8.03;;;7.33;;
13951;SDS011;39535;52.192;9.886;2024-02-21T13:11:47;6.83;;;5.97;;
13951;SDS011;39535;52.192;9.886;2024-02-21T13:14:17;6.27;;;5.67;;
13951;SDS011;39535;52.192;9.886;2024-02-21T13:16:43;7.30;;;6.10;;
13951;SDS011;39535;52.192;9.886;2024-02-21T13:19:10;5.97;;;5.33;;
13951;SDS011;39535;52.192;9.886;2024-02-21T13:21:38;6.00;;;5.40;;
13951;SDS011;39535;52.192;9.886;2024-02-21T13:24:05;5.27;;;4.00;;
13951;SDS011;39535;52.192;9.886;2024-02-21T13:26:31;5.33;;;4.07;;
13951;SDS011;39535;52.192;9.886;2024-02-21T13:28:58;4.87;;;4.23;;
13951;SDS011;39535;52.192;9.886;2024-02-21T13:31:25;4.77;;;3.70;;
13951;SDS011;39535;52.192;9.886;2024-02-21T13:33:52;4.10;;;3.07;;
13951;SDS011;39535;52.192;9.886;2024-02-21T13:36:18;4.73;;;3.33;;
13951;SDS011;39535;52.192;9.886;2024-02-21T13:38:45;4.83;;;3.13;;
13951;SDS011;39535;52.192;9.886;2024-02-21T13:41:11;5.73;;;4.50;;
13951;SDS011;39535;52.192;9.886;2024-02-21T13:43:38;5.20;;;4.10;;
13951;SDS011;39535;52.192;9.886;2024-02-21T13:46:04;4.17;;;3.60;;
13951;SDS011;39535;52.192;9.886;2024-02-21T13:48:36;6.13;;;3.93;;
13951;SDS011;39535;52.192;9.886;2024-02-21T13:51:02;6.00;;;3.90;;
13951;SDS011;39535;52.192;9.886;2024-02-21T13:53:29;4.43;;;3.70;;
13951;SDS011;39535;52.192;9.886;2024-02-21T13:55:55;4.63;;;3.10;;
13951;SDS011;39535;52.192;9.886;2024-02-21T13:58:21;4.17;;;2.83;;
13951;SDS011;39535;52.192;9.886;2024-02-21T14:00:48;5.17;;;2.90;;
13951;SDS011;39535;52.192;9.886;2024-02-21T14:03:14;5.53;;;4.00;;
13951;SDS011;39535;52.192;9.886;2024-02-21T14:05:42;5.47;;;3.00;;
13951;SDS011;39535;52.192;9.886;2024-02-21T14:08:08;4.63;;;2.70;;
13951;SDS011;39535;52.192;9.886;2024-02-21T14:10:34;5.80;;;3.33;;
13951;SDS011;39535;52.192;9.886;2024-02-21T14:13:02;3.70;;;2.70;;
13951;SDS011;39535;52.192;9.886;2024-02-21T14:15:28;3.87;;;3.30;;
13951;SDS011;39535;52.192;9.886;2024-02-21T14:17:55;4.80;;;3.27;;
13951;SDS011;39535;52.192;9.886;2024-02-21T14:20:21;4.73;;;3.20;;
13951;SDS011;39535;52.192;9.886;2024-02-21T14:22:49;5.20;;;2.50;;
13951;SDS011;39535;52.192;9.886;2024-02-21T14:25:15;3.47;;;2.73;;
13951;SDS011;39535;52.192;9.886;2024-02-21T14:27:42;2.50;;;2.20;;
13951;SDS011;39535;52.192;9.886;2024-02-21T14:30:09;6.20;;;3.27;;
13951;SDS011;39535;52.192;9.886;2024-02-21T14:32:36;3.90;;;2.37;;